Time;durP1;ratioP1;P1;durP2;ratioP2;P2;SDS_P1;SDS_P2;PMS_P1;PMS_P2;Temp;Humidity;BMP_temperature;BMP_pressure;BME280_temperature;BME280_humidity;BME280_pressure;Samples;Min_cycle;Max_cycle;Signal;HPM_P1;HPM_P2
2024/01/27 00:00:46;;;;;;;1999.90;999.90;;;;;;;;;;5013118;28;20196;-72
2024/01/27 00:03:14;;;;;;;1999.90;999.90;;;;;;;;;;5017530;28;20201;-62
2024/01/27 00:05:42;;;;;;;1999.90;999.90;;;;;;;;;;5012605;28;20196;-59
2024/01/27 00:08:10;;;;;;;1999.90;999.90;;;;;;;;;;5018119;28;20279;-69
2024/01/27 00:10:37;;;;;;;1999.90;999.90;;;;;;;;;;5017244;28;20193;-64
2024/01/27 00:13:05;;;;;;;1999.90;999.90;;;;;;;;;;4979876;28;20542;-71
2024/01/27 00:15:32;;;;;;;1999.90;999.90;;;;;;;;;;5017036;28;20197;-65
2024/01/27 00:17:59;;;;;;;1999.90;999.90;;;;;;;;;;4997934;28;20192;-64
2024/01/27 00:20:27;;;;;;;1999.90;999.90;;;;;;;;;;5017436;28;20192;-70
2024/01/27 00:22:55;;;;;;;1999.90;999.90;;;;;;;;;;5013370;28;20188;-70
2024/01/27 00:25:23;;;;;;;1999.90;999.90;;;;;;;;;;5013202;28;20214;-62
2024/01/27 00:27:50;;;;;;;1999.90;999.90;;;;;;;;;;5016922;28;20927;-62
2024/01/27 00:30:17;;;;;;;1999.90;999.90;;;;;;;;;;4996984;28;20188;-71
2024/01/27 00:32:45;;;;;;;1999.90;999.90;;;;;;;;;;4995669;28;20187;-62
2024/01/27 00:35:14;;;;;;;1999.90;999.90;;;;;;;;;;5015326;28;20211;-71
2024/01/27 00:37:41;;;;;;;1999.90;999.90;;;;;;;;;;5015768;28;20195;-64
2024/01/27 00:40:11;;;;;;;1999.90;999.90;;;;;;;;;;4997352;28;20653;-62
2024/01/27 00:42:39;;;;;;;1999.90;999.90;;;;;;;;;;5016613;28;20207;-61
2024/01/27 00:45:07;;;;;;;1999.90;999.90;;;;;;;;;;5014983;28;20607;-71
2024/01/27 00:47:34;;;;;;;1999.90;999.90;;;;;;;;;;5012238;28;20561;-60
2024/01/27 00:50:01;;;;;;;1999.90;999.90;;;;;;;;;;5016061;28;20200;-60
2024/01/27 00:52:28;;;;;;;1999.90;999.90;;;;;;;;;;5013884;28;20196;-60
2024/01/27 00:54:56;;;;;;;1999.90;999.90;;;;;;;;;;5013970;28;20229;-62
2024/01/27 00:57:24;;;;;;;1999.90;999.90;;;;;;;;;;5014742;28;20207;-60
2024/01/27 00:59:52;;;;;;;1999.90;999.90;;;;;;;;;;5014574;28;20546;-60
2024/01/27 01:02:19;;;;;;;1999.90;999.90;;;;;;;;;;4997742;28;20199;-66
2024/01/27 01:04:47;;;;;;;1999.90;999.90;;;;;;;;;;5012588;28;20191;-60
2024/01/27 01:07:15;;;;;;;1999.90;999.90;;;;;;;;;;5015689;28;20188;-60
2024/01/27 01:09:42;;;;;;;1999.90;999.90;;;;;;;;;;5012503;28;20200;-60
2024/01/27 01:12:09;;;;;;;1999.90;999.90;;;;;;;;;;5016208;28;20726;-60
2024/01/27 01:14:39;;;;;;;1999.90;999.90;;;;;;;;;;5014688;28;20238;-59
2024/01/27 01:17:06;;;;;;;1999.90;999.90;;;;;;;;;;5013226;28;20200;-60
2024/01/27 01:19:34;;;;;;;1999.90;999.90;;;;;;;;;;5012956;28;20211;-59
2024/01/27 01:22:03;;;;;;;1999.90;999.90;;;;;;;;;;5011208;28;20326;-60
2024/01/27 01:24:31;;;;;;;1999.90;999.90;;;;;;;;;;5013802;28;20191;-59
2024/01/27 01:26:59;;;;;;;1999.90;999.90;;;;;;;;;;5011644;28;20195;-61
2024/01/27 01:29:26;;;;;;;1999.90;999.90;;;;;;;;;;5018664;28;20658;-62
2024/01/27 01:31:55;;;;;;;1999.90;999.90;;;;;;;;;;5017312;28;20198;-60
2024/01/27 01:34:22;;;;;;;1999.90;999.90;;;;;;;;;;5013448;28;20229;-60
2024/01/27 01:36:50;;;;;;;1999.90;999.90;;;;;;;;;;4997405;28;20210;-63
2024/01/27 01:39:17;;;;;;;1999.90;999.90;;;;;;;;;;5014429;28;20309;-60
2024/01/27 01:41:44;;;;;;;1999.90;999.90;;;;;;;;;;5013815;28;20195;-67
2024/01/27 01:44:12;;;;;;;1999.90;999.90;;;;;;;;;;5015043;28;20192;-62
2024/01/27 01:46:39;;;;;;;1999.90;999.90;;;;;;;;;;5015359;28;20198;-62
2024/01/27 01:49:09;;;;;;;1999.90;999.90;;;;;;;;;;5013417;28;20203;-61
2024/01/27 01:51:36;;;;;;;1999.90;999.90;;;;;;;;;;5019738;28;20203;-70
2024/01/27 01:54:04;;;;;;;1999.90;999.90;;;;;;;;;;5014518;28;20255;-60
2024/01/27 01:56:31;;;;;;;1999.90;999.90;;;;;;;;;;4997219;28;20646;-64
2024/01/27 01:58:58;;;;;;;1999.90;999.90;;;;;;;;;;5017283;28;20230;-64
2024/01/27 02:01:25;;;;;;;1999.90;999.90;;;;;;;;;;5012983;28;20205;-70
2024/01/27 02:03:54;;;;;;;1999.90;999.90;;;;;;;;;;5020292;28;20206;-60
2024/01/27 02:06:22;;;;;;;1999.90;999.90;;;;;;;;;;4999445;28;20205;-60
2024/01/27 02:08:50;;;;;;;1999.90;999.90;;;;;;;;;;5017588;28;20197;-63
2024/01/27 02:11:17;;;;;;;1999.90;999.90;;;;;;;;;;5016159;28;20191;-60
2024/01/27 02:13:45;;;;;;;1999.90;999.90;;;;;;;;;;5014902;28;20195;-71
2024/01/27 02:16:12;;;;;;;1999.90;999.90;;;;;;;;;;5015811;28;20234;-61
2024/01/27 02:18:39;;;;;;;1999.90;999.90;;;;;;;;;;5015980;28;20210;-65
2024/01/27 02:21:06;;;;;;;1999.90;999.90;;;;;;;;;;4996930;28;20197;-65
2024/01/27 02:23:35;;;;;;;1999.90;999.90;;;;;;;;;;5016159;28;20301;-69
2024/01/27 02:26:04;;;;;;;1999.90;999.90;;;;;;;;;;5012298;28;20701;-63
2024/01/27 02:28:33;;;;;;;1999.90;999.90;;;;;;;;;;5014121;28;20194;-60
2024/01/27 02:31:00;;;;;;;1999.90;999.90;;;;;;;;;;5014929;28;20195;-59
2024/01/27 02:33:27;;;;;;;1999.90;999.90;;;;;;;;;;5012238;28;20668;-62
2024/01/27 02:35:55;;;;;;;1999.90;999.90;;;;;;;;;;5011945;28;20230;-59
2024/01/27 02:38:23;;;;;;;1999.90;999.90;;;;;;;;;;5012077;28;20202;-63
2024/01/27 02:40:50;;;;;;;1999.90;999.90;;;;;;;;;;4995137;28;20233;-64
2024/01/27 02:43:19;;;;;;;1999.90;999.90;;;;;;;;;;5015424;28;20202;-62
2024/01/27 02:45:46;;;;;;;1999.90;999.90;;;;;;;;;;5009797;28;20188;-62
2024/01/27 02:48:13;;;;;;;1999.90;999.90;;;;;;;;;;5015052;28;20209;-60
2024/01/27 02:50:41;;;;;;;1999.90;999.90;;;;;;;;;;5016406;28;20205;-59
2024/01/27 02:53:08;;;;;;;1999.90;999.90;;;;;;;;;;5010254;28;22171;-59
2024/01/27 02:55:36;;;;;;;1999.90;999.90;;;;;;;;;;5010823;28;20223;-59
2024/01/27 02:58:03;;;;;;;1999.90;999.90;;;;;;;;;;5012042;28;20659;-61
2024/01/27 03:00:32;;;;;;;1999.90;999.90;;;;;;;;;;5012047;28;20198;-61
2024/01/27 03:02:59;;;;;;;1999.90;999.90;;;;;;;;;;5011785;28;21214;-62
2024/01/27 03:05:27;;;;;;;1999.90;999.90;;;;;;;;;;5014315;28;20205;-59
2024/01/27 03:07:54;;;;;;;1999.90;999.90;;;;;;;;;;5010511;28;20209;-60
2024/01/27 03:10:21;;;;;;;1999.90;999.90;;;;;;;;;;5012655;28;22107;-69
2024/01/27 03:12:49;;;;;;;1999.90;999.90;;;;;;;;;;5010357;28;20198;-61
2024/01/27 03:15:16;;;;;;;1999.90;999.90;;;;;;;;;;5011591;28;20233;-62
2024/01/27 03:17:45;;;;;;;1999.90;999.90;;;;;;;;;;5013571;28;20198;-62
2024/01/27 03:20:12;;;;;;;1999.90;999.90;;;;;;;;;;5010130;28;20190;-61
2024/01/27 03:22:41;;;;;;;1999.90;999.90;;;;;;;;;;5013848;28;20214;-63
2024/01/27 03:25:10;;;;;;;1999.90;999.90;;;;;;;;;;5009596;28;20594;-59
2024/01/27 03:27:38;;;;;;;1999.90;999.90;;;;;;;;;;5010832;28;20792;-60
2024/01/27 03:30:07;;;;;;;1999.90;999.90;;;;;;;;;;5011795;28;20193;-61
2024/01/27 03:32:34;;;;;;;1999.90;999.90;;;;;;;;;;5013659;28;20202;-60
2024/01/27 03:35:06;;;;;;;1999.90;999.90;;;;;;;;;;5015534;28;20801;-59
2024/01/27 03:37:33;;;;;;;1999.90;999.90;;;;;;;;;;5009350;28;20275;-60
2024/01/27 03:40:00;;;;;;;1999.90;999.90;;;;;;;;;;5011555;28;20229;-60
2024/01/27 03:42:28;;;;;;;1999.90;999.90;;;;;;;;;;5009270;28;20206;-68
2024/01/27 03:44:56;;;;;;;1999.90;999.90;;;;;;;;;;5012850;28;20255;-60
2024/01/27 03:47:23;;;;;;;1999.90;999.90;;;;;;;;;;4992732;28;20206;-60
2024/01/27 03:49:53;;;;;;;1999.90;999.90;;;;;;;;;;5010026;28;20200;-63
2024/01/27 03:52:22;;;;;;;1999.90;999.90;;;;;;;;;;5013624;28;20572;-61
2024/01/27 03:54:49;;;;;;;1999.90;999.90;;;;;;;;;;5008751;28;20222;-60
2024/01/27 03:57:16;;;;;;;1999.90;999.90;;;;;;;;;;5010745;28;20199;-59
2024/01/27 03:59:44;;;;;;;1999.90;999.90;;;;;;;;;;5011651;28;20253;-63
2024/01/27 04:02:11;;;;;;;1999.90;999.90;;;;;;;;;;5010869;28;20221;-64
2024/01/27 04:04:38;;;;;;;1999.90;999.90;;;;;;;;;;5011942;28;20208;-60
2024/01/27 04:07:06;;;;;;;1999.90;999.90;;;;;;;;;;5011025;28;20189;-64
2024/01/27 04:09:34;;;;;;;1999.90;999.90;;;;;;;;;;5013440;28;20211;-61
2024/01/27 04:12:01;;;;;;;1999.90;999.90;;;;;;;;;;5009554;28;20208;-65
2024/01/27 04:14:29;;;;;;;1999.90;999.90;;;;;;;;;;5013313;28;22099;-60
2024/01/27 04:16:56;;;;;;;1999.90;999.90;;;;;;;;;;4990804;28;20206;-60
2024/01/27 04:19:24;;;;;;;1999.90;999.90;;;;;;;;;;5011544;28;20538;-60
2024/01/27 04:21:51;;;;;;;1999.90;999.90;;;;;;;;;;4994915;28;20213;-59
2024/01/27 04:24:19;;;;;;;1999.90;999.90;;;;;;;;;;5009475;28;21470;-60
2024/01/27 04:26:47;;;;;;;1999.90;999.90;;;;;;;;;;5012811;28;20210;-60
2024/01/27 04:29:15;;;;;;;1999.90;999.90;;;;;;;;;;5011069;28;21479;-60
2024/01/27 04:31:42;;;;;;;1999.90;999.90;;;;;;;;;;5015577;28;20211;-59
2024/01/27 04:34:10;;;;;;;1999.90;999.90;;;;;;;;;;5008797;28;20199;-60
2024/01/27 04:36:37;;;;;;;1999.90;999.90;;;;;;;;;;5013301;28;20241;-59
2024/01/27 04:39:05;;;;;;;1999.90;999.90;;;;;;;;;;5009837;28;21826;-59
2024/01/27 04:41:32;;;;;;;1999.90;999.90;;;;;;;;;;5014256;28;20207;-61
2024/01/27 04:44:01;;;;;;;1999.90;999.90;;;;;;;;;;5030375;28;20207;-60
2024/01/27 04:46:28;;;;;;;1999.90;999.90;;;;;;;;;;5011932;28;20201;-60
2024/01/27 04:48:56;;;;;;;1999.90;999.90;;;;;;;;;;5015376;28;20216;-60
2024/01/27 04:51:23;;;;;;;1999.90;999.90;;;;;;;;;;5014898;28;20188;-62
2024/01/27 04:53:51;;;;;;;1999.90;999.90;;;;;;;;;;5014898;28;20198;-60
2024/01/27 04:56:18;;;;;;;1999.90;999.90;;;;;;;;;;5013595;28;20222;-59
2024/01/27 04:58:45;;;;;;;1999.90;999.90;;;;;;;;;;5013205;28;20278;-62
2024/01/27 05:01:14;;;;;;;1999.90;999.90;;;;;;;;;;5020655;28;20191;-61
2024/01/27 05:03:41;;;;;;;1999.90;999.90;;;;;;;;;;5024419;28;20199;-60
2024/01/27 05:06:09;;;;;;;1999.90;999.90;;;;;;;;;;5025142;28;20190;-63
2024/01/27 05:08:37;;;;;;;1999.90;999.90;;;;;;;;;;5031956;28;20198;-59
2024/01/27 05:11:04;;;;;;;1999.90;999.90;;;;;;;;;;5039255;28;20194;-59
2024/01/27 05:13:32;;;;;;;1999.90;999.90;;;;;;;;;;5049784;28;20198;-61
2024/01/27 05:15:59;;;;;;;1999.90;999.90;;;;;;;;;;5048288;28;20218;-59
2024/01/27 05:18:29;;;;;;;1999.90;999.90;;;;;;;;;;5034646;28;20205;-59
2024/01/27 05:20:56;;;;;;;1999.90;999.90;;;;;;;;;;5028456;28;20199;-59
2024/01/27 05:23:24;;;;;;;1999.90;999.90;;;;;;;;;;5029433;28;20588;-59
2024/01/27 05:25:51;;;;;;;1999.90;999.90;;;;;;;;;;5009826;28;20206;-59
2024/01/27 05:28:19;;;;;;;1999.90;999.90;;;;;;;;;;5012072;28;20358;-59
2024/01/27 05:30:46;;;;;;;1999.90;999.90;;;;;;;;;;5010171;28;20233;-59
2024/01/27 05:33:13;;;;;;;1999.90;999.90;;;;;;;;;;5010613;28;20198;-61
2024/01/27 05:35:43;;;;;;;1999.90;999.90;;;;;;;;;;5012133;28;20206;-59
2024/01/27 05:38:10;;;;;;;1999.90;999.90;;;;;;;;;;5011161;28;20198;-59
2024/01/27 05:40:38;;;;;;;1999.90;999.90;;;;;;;;;;5015789;28;20230;-60
2024/01/27 05:43:05;;;;;;;1999.90;999.90;;;;;;;;;;5031732;28;20203;-59
2024/01/27 05:45:32;;;;;;;1999.90;999.90;;;;;;;;;;5035507;28;20615;-59
2024/01/27 05:48:00;;;;;;;1999.90;999.90;;;;;;;;;;5026403;28;20243;-60
2024/01/27 05:50:27;;;;;;;1999.90;999.90;;;;;;;;;;5012427;28;20194;-66
2024/01/27 05:52:56;;;;;;;1999.90;999.90;;;;;;;;;;5011767;28;20203;-59
2024/01/27 05:55:23;;;;;;;1999.90;999.90;;;;;;;;;;5009249;28;20714;-59
2024/01/27 05:57:51;;;;;;;1999.90;999.90;;;;;;;;;;5009511;28;20191;-60
2024/01/27 06:00:18;;;;;;;1999.90;999.90;;;;;;;;;;4991853;28;20205;-59
2024/01/27 06:02:45;;;;;;;1999.90;999.90;;;;;;;;;;4995431;28;20192;-59
2024/01/27 06:05:13;;;;;;;1999.90;999.90;;;;;;;;;;5009722;28;20261;-59
2024/01/27 06:07:40;;;;;;;1999.90;999.90;;;;;;;;;;5009674;28;20199;-61
2024/01/27 06:10:10;;;;;;;1999.90;999.90;;;;;;;;;;5009223;28;20201;-61
2024/01/27 06:12:38;;;;;;;1999.90;999.90;;;;;;;;;;5009126;28;20219;-60
2024/01/27 06:15:08;;;;;;;1999.90;999.90;;;;;;;;;;5012778;28;20198;-59
2024/01/27 06:17:35;;;;;;;1999.90;999.90;;;;;;;;;;5011385;28;20200;-62
2024/01/27 06:20:04;;;;;;;1999.90;999.90;;;;;;;;;;5008719;28;20193;-61
2024/01/27 06:22:32;;;;;;;1999.90;999.90;;;;;;;;;;5009275;28;20199;-59
2024/01/27 06:25:00;;;;;;;1999.90;999.90;;;;;;;;;;5010870;28;20203;-63
2024/01/27 06:27:29;;;;;;;1999.90;999.90;;;;;;;;;;5007708;28;20205;-59
2024/01/27 06:29:56;;;;;;;1999.90;999.90;;;;;;;;;;5009888;28;20198;-59
2024/01/27 06:32:23;;;;;;;1999.90;999.90;;;;;;;;;;5010401;28;20210;-62
2024/01/27 06:34:51;;;;;;;1999.90;999.90;;;;;;;;;;5007373;28;20198;-60
2024/01/27 06:37:18;;;;;;;1999.90;999.90;;;;;;;;;;4991757;28;20754;-61
2024/01/27 06:39:45;;;;;;;1999.90;999.90;;;;;;;;;;5005479;28;20248;-65
2024/01/27 06:42:13;;;;;;;1999.90;999.90;;;;;;;;;;5009604;28;20656;-64
2024/01/27 06:44:44;;;;;;;1999.90;999.90;;;;;;;;;;5009402;28;20267;-59
2024/01/27 06:47:11;;;;;;;1999.90;999.90;;;;;;;;;;5006186;28;20248;-59
2024/01/27 06:49:38;;;;;;;1999.90;999.90;;;;;;;;;;5015281;28;20201;-59
2024/01/27 06:52:06;;;;;;;1999.90;999.90;;;;;;;;;;5008459;28;20241;-59
2024/01/27 06:54:34;;;;;;;1999.90;999.90;;;;;;;;;;5010346;28;21226;-64
2024/01/27 06:57:01;;;;;;;1999.90;999.90;;;;;;;;;;4991321;28;20306;-61
2024/01/27 06:59:28;;;;;;;1999.90;999.90;;;;;;;;;;5010822;28;20212;-62
2024/01/27 07:01:57;;;;;;;1999.90;999.90;;;;;;;;;;5005302;28;20681;-61
2024/01/27 07:04:25;;;;;;;1999.90;999.90;;;;;;;;;;5009257;28;20206;-61
2024/01/27 07:06:52;;;;;;;1999.90;999.90;;;;;;;;;;5008422;28;20202;-60
2024/01/27 07:09:20;;;;;;;1999.90;999.90;;;;;;;;;;5008370;28;21101;-60
2024/01/27 07:11:47;;;;;;;1999.90;999.90;;;;;;;;;;5009868;28;20190;-61
2024/01/27 07:14:14;;;;;;;1999.90;999.90;;;;;;;;;;5008030;28;20285;-60
2024/01/27 07:16:41;;;;;;;1999.90;999.90;;;;;;;;;;5007835;28;20551;-61
2024/01/27 07:19:11;;;;;;;1999.90;999.90;;;;;;;;;;5007198;28;20203;-60
2024/01/27 07:21:38;;;;;;;1999.90;999.90;;;;;;;;;;5010248;28;20202;-68
2024/01/27 07:24:06;;;;;;;1999.90;999.90;;;;;;;;;;5008063;28;20203;-61
2024/01/27 07:26:33;;;;;;;1999.90;999.90;;;;;;;;;;5008608;28;20697;-59
2024/01/27 07:29:00;;;;;;;1999.90;999.90;;;;;;;;;;4991416;28;20202;-60
2024/01/27 07:31:28;;;;;;;1999.90;999.90;;;;;;;;;;5010437;28;20190;-60
2024/01/27 07:33:55;;;;;;;1999.90;999.90;;;;;;;;;;5006314;28;20210;-59
2024/01/27 07:36:25;;;;;;;1999.90;999.90;;;;;;;;;;5010309;28;20218;-59
2024/01/27 07:38:52;;;;;;;1999.90;999.90;;;;;;;;;;5010209;28;20245;-62
2024/01/27 07:41:20;;;;;;;1999.90;999.90;;;;;;;;;;5012340;28;20368;-59
2024/01/27 07:43:47;;;;;;;1999.90;999.90;;;;;;;;;;5010716;28;20198;-60
2024/01/27 07:46:15;;;;;;;1999.90;999.90;;;;;;;;;;5008196;28;20206;-60
2024/01/27 07:48:42;;;;;;;1999.90;999.90;;;;;;;;;;5008836;28;20183;-59
2024/01/27 07:51:10;;;;;;;1999.90;999.90;;;;;;;;;;5014840;28;20188;-59
2024/01/27 07:53:39;;;;;;;1999.90;999.90;;;;;;;;;;5009639;28;20190;-62
2024/01/27 07:56:07;;;;;;;1999.90;999.90;;;;;;;;;;5011375;28;20210;-59
2024/01/27 07:58:34;;;;;;;1999.90;999.90;;;;;;;;;;5011490;28;22102;-59
2024/01/27 08:01:02;;;;;;;1999.90;999.90;;;;;;;;;;5012033;28;20569;-59
2024/01/27 08:03:29;;;;;;;1999.90;999.90;;;;;;;;;;5010912;28;20202;-59
2024/01/27 08:05:56;;;;;;;1999.90;999.90;;;;;;;;;;5005615;28;20184;-61
2024/01/27 08:08:24;;;;;;;1999.90;999.90;;;;;;;;;;4994854;28;20233;-60
2024/01/27 08:10:53;;;;;;;1999.90;999.90;;;;;;;;;;5010657;28;20622;-63
2024/01/27 08:13:20;;;;;;;1999.90;999.90;;;;;;;;;;5012974;28;20693;-62
2024/01/27 08:15:47;;;;;;;1999.90;999.90;;;;;;;;;;5013205;28;20188;-59
2024/01/27 08:18:17;;;;;;;1999.90;999.90;;;;;;;;;;5012980;28;20427;-60
2024/01/27 08:20:44;;;;;;;1999.90;999.90;;;;;;;;;;5016147;28;20188;-59
2024/01/27 08:23:12;;;;;;;1999.90;999.90;;;;;;;;;;5013842;28;20197;-60
2024/01/27 08:25:40;;;;;;;1999.90;999.90;;;;;;;;;;5014907;28;20199;-59
2024/01/27 08:28:09;;;;;;;1999.90;999.90;;;;;;;;;;5012874;28;20195;-59
2024/01/27 08:30:37;;;;;;;1999.90;999.90;;;;;;;;;;5013401;28;20269;-59
2024/01/27 08:33:05;;;;;;;1999.90;999.90;;;;;;;;;;5015813;28;20199;-60
2024/01/27 08:35:33;;;;;;;1999.90;999.90;;;;;;;;;;5012816;28;20252;-61
2024/01/27 08:38:00;;;;;;;1999.90;999.90;;;;;;;;;;5014888;28;20226;-59
2024/01/27 08:40:27;;;;;;;1999.90;999.90;;;;;;;;;;5012500;28;20227;-59
2024/01/27 08:42:55;;;;;;;1999.90;999.90;;;;;;;;;;5012670;28;20715;-59
2024/01/27 08:45:24;;;;;;;1999.90;999.90;;;;;;;;;;4996286;28;20580;-59
2024/01/27 08:47:51;;;;;;;1999.90;999.90;;;;;;;;;;5016278;28;20199;-61
2024/01/27 08:50:19;;;;;;;1999.90;999.90;;;;;;;;;;5010752;28;20189;-62
2024/01/27 08:52:47;;;;;;;1999.90;999.90;;;;;;;;;;5013687;28;20208;-59
2024/01/27 08:55:18;;;;;;;1999.90;999.90;;;;;;;;;;5011394;28;20198;-59
2024/01/27 08:57:46;;;;;;;1999.90;999.90;;;;;;;;;;5012126;28;20229;-60
2024/01/27 09:00:15;;;;;;;1999.90;999.90;;;;;;;;;;5010841;28;20200;-59
2024/01/27 09:02:45;;;;;;;1999.90;999.90;;;;;;;;;;5010710;28;20203;-67
2024/01/27 09:05:12;;;;;;;1999.90;999.90;;;;;;;;;;4992491;28;20211;-60
2024/01/27 09:07:39;;;;;;;1999.90;999.90;;;;;;;;;;5010815;28;20195;-59
2024/01/27 09:10:07;;;;;;;1999.90;999.90;;;;;;;;;;5011098;28;20570;-61
2024/01/27 09:12:35;;;;;;;1999.90;999.90;;;;;;;;;;5013732;28;20560;-59
2024/01/27 09:15:02;;;;;;;1999.90;999.90;;;;;;;;;;4991870;28;20192;-60
2024/01/27 09:17:30;;;;;;;1999.90;999.90;;;;;;;;;;5011814;28;20346;-59
2024/01/27 09:19:58;;;;;;;1999.90;999.90;;;;;;;;;;5009059;28;20197;-62
2024/01/27 09:22:25;;;;;;;1999.90;999.90;;;;;;;;;;4992337;28;20211;-60
2024/01/27 09:24:53;;;;;;;1999.90;999.90;;;;;;;;;;5008413;28;20193;-59
2024/01/27 09:27:20;;;;;;;1999.90;999.90;;;;;;;;;;5011172;28;20200;-61
2024/01/27 09:29:48;;;;;;;1999.90;999.90;;;;;;;;;;5013288;28;20188;-59
2024/01/27 09:32:15;;;;;;;1999.90;999.90;;;;;;;;;;5007160;28;20207;-63
2024/01/27 09:34:43;;;;;;;1999.90;999.90;;;;;;;;;;5010002;28;20562;-60
2024/01/27 09:37:11;;;;;;;1999.90;999.90;;;;;;;;;;5011816;28;20216;-62
2024/01/27 09:39:39;;;;;;;1999.90;999.90;;;;;;;;;;4994370;28;20236;-60
2024/01/27 09:42:10;;;;;;;1999.90;999.90;;;;;;;;;;5014900;28;20201;-59
2024/01/27 09:44:37;;;;;;;1999.90;999.90;;;;;;;;;;5013266;28;20188;-59
2024/01/27 09:47:05;;;;;;;1999.90;999.90;;;;;;;;;;5012554;28;20202;-59
2024/01/27 09:49:33;;;;;;;1999.90;999.90;;;;;;;;;;5012026;28;20670;-59
2024/01/27 09:52:00;;;;;;;1999.90;999.90;;;;;;;;;;5014057;28;20200;-60
2024/01/27 09:54:29;;;;;;;1999.90;999.90;;;;;;;;;;4977908;28;20330;-62
2024/01/27 09:56:57;;;;;;;1999.90;999.90;;;;;;;;;;5009771;28;20223;-62
2024/01/27 09:59:25;;;;;;;1999.90;999.90;;;;;;;;;;4993412;28;20209;-61
2024/01/27 10:01:53;;;;;;;1999.90;999.90;;;;;;;;;;5012316;28;20238;-60
2024/01/27 10:04:21;;;;;;;1999.90;999.90;;;;;;;;;;5013357;28;20701;-59
2024/01/27 10:06:50;;;;;;;1999.90;999.90;;;;;;;;;;5009672;28;20194;-60
2024/01/27 10:09:18;;;;;;;1999.90;999.90;;;;;;;;;;5011527;28;20556;-61
2024/01/27 10:11:47;;;;;;;1999.90;999.90;;;;;;;;;;5009431;28;20586;-59
2024/01/27 10:14:14;;;;;;;1999.90;999.90;;;;;;;;;;5013481;28;20196;-69
2024/01/27 10:16:43;;;;;;;1999.90;999.90;;;;;;;;;;5032733;28;20304;-73
2024/01/27 10:19:15;;;;;;;1999.90;999.90;;;;;;;;;;5016133;28;20203;-66
2024/01/27 10:21:43;;;;;;;1999.90;999.90;;;;;;;;;;5014114;28;20624;-66
2024/01/27 10:24:10;;;;;;;1999.90;999.90;;;;;;;;;;4995306;28;20600;-62
2024/01/27 10:26:38;;;;;;;1999.90;999.90;;;;;;;;;;5011128;28;20246;-71
2024/01/27 10:29:06;;;;;;;1999.90;999.90;;;;;;;;;;5011128;28;20860;-61
2024/01/27 10:31:35;;;;;;;1999.90;999.90;;;;;;;;;;5013636;28;20181;-63
2024/01/27 10:34:04;;;;;;;1999.90;999.90;;;;;;;;;;5011322;28;20625;-68
2024/01/27 10:36:41;;;;;;;1999.90;999.90;;;;;;;;;;5017778;28;20206;-73
2024/01/27 10:39:16;;;;;;;1999.90;999.90;;;;;;;;;;4999496;28;20247;-63
2024/01/27 10:41:45;;;;;;;1999.90;999.90;;;;;;;;;;5011714;28;20216;-72
2024/01/27 10:44:15;;;;;;;1999.90;999.90;;;;;;;;;;5013538;28;20224;-73
2024/01/27 10:46:44;;;;;;;1999.90;999.90;;;;;;;;;;4990573;28;20198;-71
2024/01/27 10:49:13;;;;;;;1999.90;999.90;;;;;;;;;;5013477;28;20195;-74
2024/01/27 10:51:43;;;;;;;1999.90;999.90;;;;;;;;;;5010448;28;20201;-75
2024/01/27 10:54:12;;;;;;;1999.90;999.90;;;;;;;;;;5012210;28;20186;-75
2024/01/27 10:56:40;;;;;;;1999.90;999.90;;;;;;;;;;5008931;28;20793;-71
2024/01/27 10:59:10;;;;;;;1999.90;999.90;;;;;;;;;;5011332;28;20206;-75
2024/01/27 11:01:39;;;;;;;1999.90;999.90;;;;;;;;;;5009883;28;20545;-76
2024/01/27 11:04:07;;;;;;;1999.90;999.90;;;;;;;;;;5006228;28;20191;-75
2024/01/27 11:06:35;;;;;;;1999.90;999.90;;;;;;;;;;5027676;28;20673;-74
2024/01/27 11:09:05;;;;;;;1999.90;999.90;;;;;;;;;;5034322;28;20258;-73
2024/01/27 11:11:33;;;;;;;1999.90;999.90;;;;;;;;;;5045985;28;20596;-75
2024/01/27 11:14:00;;;;;;;1999.90;999.90;;;;;;;;;;5037755;28;20295;-73
2024/01/27 11:16:28;;;;;;;1999.90;999.90;;;;;;;;;;5021682;28;20268;-73
2024/01/27 11:18:57;;;;;;;1999.90;999.90;;;;;;;;;;5029084;28;20216;-77
2024/01/27 11:21:24;;;;;;;1999.90;999.90;;;;;;;;;;5027107;28;20585;-64
2024/01/27 11:23:51;;;;;;;1999.90;999.90;;;;;;;;;;5029087;28;20200;-75
2024/01/27 11:26:21;;;;;;;1999.90;999.90;;;;;;;;;;5032151;28;20184;-66
2024/01/27 11:28:50;;;;;;;1999.90;999.90;;;;;;;;;;5026574;28;20207;-70
2024/01/27 11:31:18;;;;;;;1999.90;999.90;;;;;;;;;;5019656;28;20188;-73
2024/01/27 11:33:46;;;;;;;1999.90;999.90;;;;;;;;;;5031760;28;20681;-73
2024/01/27 11:36:22;;;;;;;1999.90;999.90;;;;;;;;;;5038195;28;20188;-73
2024/01/27 11:38:49;;;;;;;1999.90;999.90;;;;;;;;;;5035359;28;20588;-74
2024/01/27 11:41:25;;;;;;;1999.90;999.90;;;;;;;;;;5017935;28;20234;-73
2024/01/27 11:43:55;;;;;;;1999.90;999.90;;;;;;;;;;5014532;28;20203;-75
2024/01/27 11:46:23;;;;;;;1999.90;999.90;;;;;;;;;;5036173;28;20191;-68
2024/01/27 11:48:50;;;;;;;1999.90;999.90;;;;;;;;;;5030699;28;20245;-74
2024/01/27 11:51:18;;;;;;;1999.90;999.90;;;;;;;;;;5038338;28;20184;-66
2024/01/27 11:53:47;;;;;;;1999.90;999.90;;;;;;;;;;5030034;28;20210;-72
2024/01/27 11:56:15;;;;;;;1999.90;999.90;;;;;;;;;;5034759;28;20192;-71
2024/01/27 11:58:48;;;;;;;1999.90;999.90;;;;;;;;;;5028993;28;20226;-61
2024/01/27 12:01:15;;;;;;;1999.90;999.90;;;;;;;;;;5026774;28;20206;-61
2024/01/27 12:03:43;;;;;;;1999.90;999.90;;;;;;;;;;5046685;28;20584;-72
2024/01/27 12:06:10;;;;;;;1999.90;999.90;;;;;;;;;;5052865;28;20678;-69
2024/01/27 12:08:38;;;;;;;1999.90;999.90;;;;;;;;;;5050135;28;20218;-72
2024/01/27 12:11:06;;;;;;;1999.90;999.90;;;;;;;;;;5052314;28;20198;-75
2024/01/27 12:13:34;;;;;;;1999.90;999.90;;;;;;;;;;5050269;28;20188;-75
2024/01/27 12:16:02;;;;;;;1999.90;999.90;;;;;;;;;;5052638;28;20199;-71
2024/01/27 12:18:30;;;;;;;1999.90;999.90;;;;;;;;;;5051566;28;20690;-76
2024/01/27 12:20:58;;;;;;;1999.90;999.90;;;;;;;;;;5050795;28;20195;-75
2024/01/27 12:23:25;;;;;;;1999.90;999.90;;;;;;;;;;5034219;28;20203;-75
2024/01/27 12:25:56;;;;;;;1999.90;999.90;;;;;;;;;;5050071;28;20199;-74
2024/01/27 12:28:25;;;;;;;1999.90;999.90;;;;;;;;;;5052460;28;20679;-73
2024/01/27 12:30:53;;;;;;;1999.90;999.90;;;;;;;;;;5050170;28;20206;-74
2024/01/27 12:33:24;;;;;;;1999.90;999.90;;;;;;;;;;5051957;28;20697;-75
2024/01/27 12:35:54;;;;;;;1999.90;999.90;;;;;;;;;;5050984;28;20192;-65
2024/01/27 12:38:21;;;;;;;1999.90;999.90;;;;;;;;;;5054351;28;20300;-72
2024/01/27 12:40:48;;;;;;;1999.90;999.90;;;;;;;;;;5059769;28;20725;-73
2024/01/27 12:43:16;;;;;;;1999.90;999.90;;;;;;;;;;5051493;28;20198;-68
2024/01/27 12:45:45;;;;;;;1999.90;999.90;;;;;;;;;;5051153;28;20681;-73
2024/01/27 12:48:12;;;;;;;1999.90;999.90;;;;;;;;;;5050593;28;20215;-69
2024/01/27 12:50:39;;;;;;;1999.90;999.90;;;;;;;;;;5052415;28;20206;-72
2024/01/27 12:53:07;;;;;;;1999.90;999.90;;;;;;;;;;5033396;28;20271;-74
2024/01/27 12:55:34;;;;;;;1999.90;999.90;;;;;;;;;;5053381;28;20187;-74
2024/01/27 12:58:02;;;;;;;1999.90;999.90;;;;;;;;;;5051744;28;20219;-71
2024/01/27 13:00:29;;;;;;;1999.90;999.90;;;;;;;;;;5049654;28;20223;-72
2024/01/27 13:02:58;;;;;;;1999.90;999.90;;;;;;;;;;5051869;28;20198;-68
2024/01/27 13:05:26;;;;;;;1999.90;999.90;;;;;;;;;;5053001;28;20191;-68
2024/01/27 13:07:53;;;;;;;1999.90;999.90;;;;;;;;;;5055427;28;20322;-70
2024/01/27 13:10:20;;;;;;;1999.90;999.90;;;;;;;;;;5068502;28;20217;-72
2024/01/27 13:12:48;;;;;;;1999.90;999.90;;;;;;;;;;5070645;28;20201;-72
2024/01/27 13:15:15;;;;;;;1999.90;999.90;;;;;;;;;;5052923;28;20188;-69
2024/01/27 13:17:42;;;;;;;1999.90;999.90;;;;;;;;;;5049499;28;20226;-69
2024/01/27 13:20:12;;;;;;;1999.90;999.90;;;;;;;;;;5051955;28;20196;-68
2024/01/27 13:22:40;;;;;;;1999.90;999.90;;;;;;;;;;5050073;28;20554;-69
2024/01/27 13:25:07;;;;;;;1999.90;999.90;;;;;;;;;;5042486;28;20189;-69
2024/01/27 13:27:35;;;;;;;1999.90;999.90;;;;;;;;;;5028723;28;20203;-65
2024/01/27 13:30:02;;;;;;;1999.90;999.90;;;;;;;;;;5021513;28;20198;-65
2024/01/27 13:32:29;;;;;;;1999.90;999.90;;;;;;;;;;5003009;28;20197;-75
2024/01/27 13:34:57;;;;;;;1999.90;999.90;;;;;;;;;;5014077;28;20214;-70
2024/01/27 13:37:27;;;;;;;1999.90;999.90;;;;;;;;;;5012444;28;20200;-67
2024/01/27 13:39:56;;;;;;;1999.90;999.90;;;;;;;;;;5011737;28;20203;-70
2024/01/27 13:42:23;;;;;;;1999.90;999.90;;;;;;;;;;5021376;28;20186;-74
2024/01/27 13:44:51;;;;;;;1999.90;999.90;;;;;;;;;;5028354;28;20212;-73